createdAt,value
2023-05-17T00:01:44.596Z,2.97
2023-05-17T00:04:11.137Z,2.63
2023-05-17T00:06:37.329Z,2.87
2023-05-17T00:09:03.584Z,2.77
2023-05-17T00:11:29.758Z,2.97
2023-05-17T00:13:55.946Z,2.50
2023-05-17T00:16:22.127Z,3.00
2023-05-17T00:18:48.656Z,2.93
2023-05-17T00:21:14.903Z,2.67
2023-05-17T00:23:41.119Z,2.70
2023-05-17T00:26:07.294Z,3.00
2023-05-17T00:28:33.452Z,2.80
2023-05-17T00:30:59.969Z,2.70
2023-05-17T00:33:26.176Z,3.23
2023-05-17T00:35:52.677Z,3.27
2023-05-17T00:38:18.899Z,3.30
2023-05-17T00:40:45.127Z,3.30
2023-05-17T00:43:11.309Z,3.37
2023-05-17T00:45:37.749Z,2.70
2023-05-17T00:48:04.824Z,3.17
2023-05-17T00:50:31.312Z,3.40
2023-05-17T00:52:57.891Z,2.77
2023-05-17T00:55:24.221Z,3.40
2023-05-17T00:57:51.427Z,3.30
2023-05-17T01:00:18.534Z,3.23
2023-05-17T01:02:47.956Z,3.10
2023-05-17T01:05:14.904Z,3.87
2023-05-17T01:07:41.303Z,3.60
2023-05-17T01:10:09.371Z,3.10
2023-05-17T01:13:05.246Z,3.50
2023-05-17T01:15:36.014Z,3.63
2023-05-17T01:18:23.108Z,3.47
2023-05-17T01:20:53.795Z,3.90
2023-05-17T01:23:58.552Z,3.73
2023-05-17T01:26:40.334Z,3.87
2023-05-17T01:29:09.201Z,4.30
2023-05-17T01:31:36.432Z,3.97
2023-05-17T01:34:09.122Z,3.90
2023-05-17T01:36:35.464Z,3.53
2023-05-17T01:39:01.969Z,4.10
2023-05-17T01:41:39.500Z,4.00
2023-05-17T01:44:25.470Z,4.43
2023-05-17T01:47:05.061Z,3.83
2023-05-17T01:49:37.872Z,4.37
2023-05-17T01:52:26.389Z,4.73
2023-05-17T01:55:29.440Z,4.03
2023-05-17T01:57:56.785Z,4.30
2023-05-17T02:00:28.579Z,4.33
2023-05-17T02:02:56.976Z,3.53
2023-05-17T02:05:23.214Z,4.60
2023-05-17T02:07:49.525Z,4.43
2023-05-17T02:10:17.054Z,4.23
2023-05-17T02:12:43.495Z,4.50
2023-05-17T02:15:11.266Z,4.73
2023-05-17T02:17:39.892Z,4.27
2023-05-17T02:20:08.286Z,3.90
2023-05-17T02:22:34.925Z,4.30
2023-05-17T02:25:02.021Z,4.63
2023-05-17T02:27:28.307Z,4.80
2023-05-17T02:29:54.543Z,4.97
2023-05-17T02:32:21.003Z,5.00
2023-05-17T02:34:47.190Z,5.03
2023-05-17T02:37:13.403Z,6.20
2023-05-17T02:39:39.858Z,5.67
2023-05-17T02:42:06.326Z,5.50
2023-05-17T02:44:32.515Z,5.53
2023-05-17T02:46:58.760Z,5.60
2023-05-17T02:49:24.994Z,5.67
2023-05-17T02:51:51.328Z,5.20
2023-05-17T02:54:17.553Z,5.37
2023-05-17T02:56:43.801Z,5.20
2023-05-17T02:59:10.084Z,4.63
2023-05-17T03:01:38.050Z,4.70
2023-05-17T03:04:05.130Z,5.23
2023-05-17T03:06:31.494Z,5.20
2023-05-17T03:08:58.260Z,5.00
2023-05-17T03:11:25.097Z,5.20
2023-05-17T03:13:52.958Z,4.27
2023-05-17T03:16:23.855Z,4.70
2023-05-17T03:18:51.552Z,5.50
2023-05-17T03:21:17.856Z,4.93
2023-05-17T03:23:44.272Z,5.27
2023-05-17T03:26:10.466Z,4.93
2023-05-17T03:28:43.324Z,4.60
2023-05-17T03:31:10.754Z,4.43
2023-05-17T03:33:37.355Z,5.20
2023-05-17T03:36:04.512Z,5.77
2023-05-17T03:38:30.931Z,5.60
2023-05-17T03:40:57.333Z,5.33
2023-05-17T03:43:23.571Z,6.03
2023-05-17T03:45:50.195Z,6.43
2023-05-17T03:48:17.622Z,5.40
2023-05-17T03:50:44.171Z,5.63
2023-05-17T03:53:11.271Z,6.03
2023-05-17T03:55:38.163Z,5.70
2023-05-17T03:58:04.674Z,5.97
2023-05-17T04:00:30.917Z,4.93
2023-05-17T04:03:02.054Z,6.27
2023-05-17T04:05:28.766Z,5.80
2023-05-17T04:07:55.925Z,6.70
2023-05-17T04:10:22.218Z,6.10
2023-05-17T04:12:49.139Z,6.07
2023-05-17T04:15:15.779Z,6.10
2023-05-17T04:17:42.959Z,6.17
2023-05-17T04:20:10.603Z,5.90
2023-05-17T04:22:36.870Z,5.97
2023-05-17T04:25:05.786Z,5.20
2023-05-17T04:27:32.961Z,6.20
2023-05-17T04:29:59.204Z,5.87
2023-05-17T04:32:27.251Z,5.93
2023-05-17T04:34:53.792Z,6.03
2023-05-17T04:37:20.180Z,5.40
2023-05-17T04:39:49.456Z,5.97
2023-05-17T04:42:15.735Z,6.00
2023-05-17T04:44:47.933Z,5.80
2023-05-17T04:47:14.198Z,6.00
2023-05-17T04:49:41.065Z,6.10
2023-05-17T04:52:07.271Z,6.97
2023-05-17T04:54:34.240Z,5.73
2023-05-17T04:57:00.467Z,6.10
2023-05-17T04:59:46.884Z,6.13
2023-05-17T05:02:13.904Z,5.97
2023-05-17T05:04:40.712Z,6.57
2023-05-17T05:07:08.116Z,5.80
2023-05-17T05:09:34.534Z,7.50
2023-05-17T05:12:00.735Z,6.07
2023-05-17T05:14:26.935Z,6.63
2023-05-17T05:16:54.894Z,6.07
2023-05-17T05:19:21.904Z,6.20
2023-05-17T05:21:50.454Z,6.40
2023-05-17T05:24:16.886Z,6.57
2023-05-17T05:26:44.028Z,5.97
2023-05-17T05:29:11.298Z,5.43
2023-05-17T05:31:37.858Z,6.13
2023-05-17T05:34:06.702Z,6.43
2023-05-17T05:36:33.779Z,6.20
2023-05-17T05:39:01.568Z,6.50
2023-05-17T05:41:30.693Z,6.43
2023-05-17T05:43:57.280Z,5.57
2023-05-17T05:46:23.590Z,7.17
2023-05-17T05:48:50.265Z,6.30
2023-05-17T05:51:23.889Z,6.43
2023-05-17T05:53:51.229Z,6.30
2023-05-17T05:56:19.009Z,6.20
2023-05-17T05:58:45.226Z,6.57
2023-05-17T06:01:11.935Z,7.23
2023-05-17T06:03:38.243Z,6.20
2023-05-17T06:06:04.800Z,6.73
2023-05-17T06:08:31.361Z,6.90
2023-05-17T06:10:57.656Z,6.30
2023-05-17T06:13:23.830Z,6.07
2023-05-17T06:15:50.674Z,6.50
2023-05-17T06:18:16.919Z,6.17
2023-05-17T06:20:43.161Z,5.63
2023-05-17T06:23:09.346Z,4.60
2023-05-17T06:25:35.795Z,4.23
2023-05-17T06:28:03.755Z,4.77
2023-05-17T06:30:30.593Z,4.03
2023-05-17T06:32:57.559Z,3.97
2023-05-17T06:35:23.889Z,3.73
2023-05-17T06:37:50.093Z,3.73
2023-05-17T06:40:31.431Z,3.57
2023-05-17T06:42:57.884Z,3.53
2023-05-17T06:45:26.252Z,2.90
2023-05-17T06:47:53.162Z,3.53
2023-05-17T06:50:19.449Z,4.13
2023-05-17T06:52:45.959Z,3.60
2023-05-17T06:55:12.381Z,4.03
2023-05-17T06:57:38.553Z,3.80
2023-05-17T07:00:09.742Z,3.80
2023-05-17T07:02:36.831Z,3.57
2023-05-17T07:05:06.118Z,4.00
2023-05-17T07:07:32.553Z,3.30
2023-05-17T07:09:58.984Z,3.30
2023-05-17T07:12:25.173Z,3.00
2023-05-17T07:14:51.372Z,3.20
2023-05-17T07:17:17.575Z,2.83
2023-05-17T07:19:43.888Z,3.10
2023-05-17T07:22:10.766Z,3.00
2023-05-17T07:24:36.929Z,2.87
2023-05-17T07:27:03.301Z,2.40
2023-05-17T07:29:29.734Z,3.10
2023-05-17T07:31:58.258Z,3.30
2023-05-17T07:34:24.692Z,2.80
2023-05-17T07:36:50.901Z,2.83
2023-05-17T07:39:17.382Z,3.60
2023-05-17T07:41:43.584Z,2.70
2023-05-17T07:44:10.048Z,2.97
2023-05-17T07:46:36.503Z,3.00
2023-05-17T07:49:02.817Z,3.10
2023-05-17T07:51:29.071Z,3.50
2023-05-17T07:53:55.251Z,3.20
2023-05-17T07:56:21.684Z,2.97
2023-05-17T07:58:48.030Z,3.40
2023-05-17T08:01:14.459Z,2.67
2023-05-17T08:03:46.970Z,2.90
2023-05-17T08:06:17.496Z,2.83
2023-05-17T08:08:44.385Z,3.27
2023-05-17T08:11:12.046Z,3.13
2023-05-17T08:13:38.361Z,3.00
2023-05-17T08:16:13.564Z,2.90
2023-05-17T08:18:42.421Z,2.60
2023-05-17T08:21:09.104Z,2.90
2023-05-17T08:23:35.362Z,2.90
2023-05-17T08:26:01.522Z,3.10
2023-05-17T08:28:28.044Z,2.90
2023-05-17T08:30:54.196Z,3.20
2023-05-17T08:33:21.770Z,2.97
2023-05-17T08:36:00.611Z,3.20
2023-05-17T08:38:27.123Z,2.73
2023-05-17T08:40:59.211Z,2.97
2023-05-17T08:43:28.366Z,2.73
2023-05-17T08:45:57.169Z,2.83
2023-05-17T08:48:23.789Z,2.50
2023-05-17T08:50:53.723Z,3.00
2023-05-17T08:53:20.105Z,2.43
2023-05-17T08:55:49.952Z,2.60
2023-05-17T08:58:28.430Z,2.73
2023-05-17T09:00:56.771Z,2.80
2023-05-17T09:03:24.736Z,2.90
2023-05-17T09:05:54.996Z,3.20
2023-05-17T09:08:22.368Z,3.10
2023-05-17T09:10:49.324Z,3.17
2023-05-17T09:13:16.127Z,2.53
2023-05-17T09:15:44.212Z,2.47
2023-05-17T09:18:15.251Z,2.60
2023-05-17T09:20:50.981Z,2.33
2023-05-17T09:23:21.882Z,2.30
2023-05-17T09:25:49.330Z,2.50
2023-05-17T09:28:19.930Z,2.13
2023-05-17T09:30:48.861Z,2.73
2023-05-17T09:33:18.484Z,2.57
2023-05-17T09:35:45.196Z,2.30
2023-05-17T09:38:13.170Z,2.50
2023-05-17T09:40:43.990Z,2.80
2023-05-17T09:43:12.138Z,2.50
2023-05-17T09:45:39.214Z,2.63
2023-05-17T09:48:18.026Z,2.13
2023-05-17T09:50:50.424Z,2.33
2023-05-17T09:53:39.256Z,2.37
2023-05-17T09:56:07.683Z,2.47
2023-05-17T09:58:37.375Z,2.40
2023-05-17T10:01:09.456Z,2.90
2023-05-17T10:03:37.994Z,2.00
2023-05-17T10:06:13.286Z,2.13
2023-05-17T10:08:54.699Z,1.87
2023-05-17T10:11:33.786Z,2.37
2023-05-17T10:14:31.851Z,2.20
2023-05-17T10:17:05.950Z,2.23
2023-05-17T10:19:33.151Z,2.33
2023-05-17T10:22:14.725Z,1.97
2023-05-17T10:24:52.326Z,2.30
2023-05-17T10:27:20.453Z,1.90
2023-05-17T10:29:49.854Z,1.93
2023-05-17T10:32:29.491Z,2.33
2023-05-17T10:35:09.293Z,2.27
2023-05-17T10:37:40.515Z,1.80
2023-05-17T10:40:12.817Z,1.73
2023-05-17T10:42:50.162Z,1.93
2023-05-17T10:45:21.099Z,2.60
2023-05-17T10:47:54.082Z,2.07
2023-05-17T10:50:24.371Z,2.00
2023-05-17T10:52:52.808Z,2.00
2023-05-17T10:55:27.837Z,1.70
2023-05-17T10:58:17.546Z,1.77
2023-05-17T11:00:52.042Z,2.10
2023-05-17T11:03:33.973Z,2.07
2023-05-17T11:06:24.604Z,1.77
2023-05-17T11:09:17.956Z,2.20
2023-05-17T11:12:10.515Z,2.00
2023-05-17T11:14:52.534Z,2.00
2023-05-17T11:17:25.978Z,1.97
2023-05-17T11:20:02.065Z,2.07
2023-05-17T11:22:36.675Z,2.20
2023-05-17T11:25:13.775Z,2.50
2023-05-17T11:27:51.520Z,2.00
2023-05-17T11:30:22.331Z,2.33
2023-05-17T11:32:52.725Z,1.93
2023-05-17T11:35:28.208Z,2.07
2023-05-17T11:38:15.333Z,2.30
2023-05-17T11:40:44.647Z,2.00
2023-05-17T11:43:20.877Z,2.27
2023-05-17T11:45:57.859Z,2.00
2023-05-17T11:48:25.897Z,1.90
2023-05-17T11:50:55.552Z,2.23
2023-05-17T11:53:23.605Z,2.07
2023-05-17T11:55:51.928Z,2.23
2023-05-17T11:58:23.856Z,2.00
2023-05-17T12:01:00.858Z,2.13
2023-05-17T12:03:29.217Z,2.10
2023-05-17T12:06:06.224Z,1.80
2023-05-17T12:08:36.324Z,2.10
2023-05-17T12:11:05.335Z,2.10
2023-05-17T12:13:37.173Z,2.20
2023-05-17T12:16:09.640Z,2.00
2023-05-17T12:18:38.217Z,1.80
2023-05-17T12:21:06.747Z,2.10
2023-05-17T12:23:40.464Z,2.00
2023-05-17T12:26:13.748Z,1.83
2023-05-17T12:29:08.504Z,1.93
2023-05-17T12:31:39.547Z,2.20
2023-05-17T12:34:09.183Z,2.20
2023-05-17T12:36:38.838Z,2.10
2023-05-17T12:39:10.515Z,2.10
2023-05-17T12:41:38.633Z,1.90
2023-05-17T12:44:15.367Z,2.27
2023-05-17T12:46:44.360Z,2.17
2023-05-17T12:49:11.859Z,2.07
2023-05-17T12:51:46.173Z,2.03
2023-05-17T12:54:29.087Z,2.30
2023-05-17T12:56:56.262Z,2.20
2023-05-17T12:59:27.905Z,2.30
2023-05-17T13:01:57.067Z,2.50
2023-05-17T13:04:33.001Z,2.07
2023-05-17T13:07:02.900Z,2.10
2023-05-17T13:09:31.392Z,2.20
2023-05-17T13:12:06.396Z,2.27
2023-05-17T13:14:39.602Z,2.20
2023-05-17T13:17:15.627Z,1.97
2023-05-17T13:19:42.023Z,2.37
2023-05-17T13:22:08.886Z,1.77
2023-05-17T13:24:37.501Z,2.77
2023-05-17T13:27:05.317Z,2.27
2023-05-17T13:29:39.527Z,2.70
2023-05-17T13:32:09.241Z,2.83
2023-05-17T13:34:36.106Z,2.67
2023-05-17T13:37:03.316Z,2.57
2023-05-17T13:39:29.641Z,2.00
2023-05-17T13:41:55.950Z,2.60
2023-05-17T13:44:22.325Z,2.10
2023-05-17T13:46:48.512Z,1.87
2023-05-17T13:49:14.744Z,2.10
2023-05-17T13:51:42.060Z,2.00
2023-05-17T13:54:09.919Z,2.17
2023-05-17T13:56:38.377Z,2.10
2023-05-17T13:59:04.754Z,2.20
2023-05-17T14:01:31.052Z,2.10
2023-05-17T14:03:57.331Z,2.27
2023-05-17T14:06:23.811Z,1.60
2023-05-17T14:08:51.458Z,2.63
2023-05-17T14:11:17.653Z,2.00
2023-05-17T14:13:43.880Z,2.43
2023-05-17T14:16:10.218Z,1.87
2023-05-17T14:18:37.174Z,2.50
2023-05-17T14:21:04.346Z,2.03
2023-05-17T14:23:30.559Z,2.10
2023-05-17T14:25:57.014Z,2.10
2023-05-17T14:28:23.197Z,2.00
2023-05-17T14:30:49.830Z,2.33
2023-05-17T14:33:16.142Z,2.37
2023-05-17T14:35:42.416Z,2.53
2023-05-17T14:38:08.574Z,2.20
2023-05-17T14:40:34.805Z,2.23
2023-05-17T14:43:01.004Z,2.53
2023-05-17T14:45:27.457Z,2.33
2023-05-17T14:47:53.835Z,2.57
2023-05-17T14:50:20.323Z,2.63
2023-05-17T14:52:46.547Z,2.50
2023-05-17T14:55:15.598Z,2.77
2023-05-17T14:57:42.977Z,2.40
2023-05-17T15:00:10.837Z,2.50
2023-05-17T15:02:37.947Z,2.13
2023-05-17T15:05:04.962Z,2.27
2023-05-17T15:07:33.665Z,2.10
2023-05-17T15:10:00.938Z,2.10
2023-05-17T15:12:28.674Z,2.63
2023-05-17T15:14:55.112Z,2.63
2023-05-17T15:17:22.209Z,2.00
2023-05-17T15:19:49.681Z,2.23
2023-05-17T15:22:16.610Z,2.13
2023-05-17T15:24:45.786Z,2.33
2023-05-17T15:27:15.690Z,2.13
2023-05-17T15:29:43.137Z,2.20
2023-05-17T15:32:09.751Z,2.70
2023-05-17T15:34:36.121Z,2.10
2023-05-17T15:37:04.014Z,2.30
2023-05-17T15:39:30.238Z,2.50
2023-05-17T15:41:58.327Z,2.33
2023-05-17T15:44:24.774Z,2.60
2023-05-17T15:46:51.350Z,2.30
2023-05-17T15:49:22.053Z,2.20
2023-05-17T15:51:48.399Z,2.10
2023-05-17T15:54:15.018Z,2.37
2023-05-17T15:56:43.441Z,2.50
2023-05-17T15:59:09.669Z,2.93
2023-05-17T16:01:36.046Z,2.43
2023-05-17T16:04:02.479Z,2.40
2023-05-17T16:06:33.919Z,2.37
2023-05-17T16:09:00.235Z,2.40
2023-05-17T16:11:26.649Z,2.97
2023-05-17T16:13:53.162Z,2.87
2023-05-17T16:16:20.420Z,2.40
2023-05-17T16:18:46.830Z,2.17
2023-05-17T16:21:13.539Z,2.37
2023-05-17T16:23:39.718Z,2.10
2023-05-17T16:26:06.429Z,2.60
2023-05-17T16:28:34.717Z,2.47
2023-05-17T16:31:02.861Z,2.60
2023-05-17T16:33:29.219Z,2.30
2023-05-17T16:35:56.990Z,2.63
2023-05-17T16:38:23.177Z,2.23
2023-05-17T16:40:49.611Z,2.00
2023-05-17T16:43:15.929Z,2.50
2023-05-17T16:45:45.524Z,2.60
2023-05-17T16:48:13.869Z,2.20
2023-05-17T16:50:41.914Z,2.10
2023-05-17T16:53:08.286Z,2.57
2023-05-17T16:55:35.573Z,2.50
2023-05-17T16:58:01.931Z,2.93
2023-05-17T17:00:29.288Z,2.57
2023-05-17T17:02:58.439Z,2.63
2023-05-17T17:05:25.726Z,2.77
2023-05-17T17:07:51.930Z,2.80
2023-05-17T17:10:19.343Z,2.40
2023-05-17T17:12:46.495Z,2.60
2023-05-17T17:15:13.275Z,2.57
2023-05-17T17:17:39.472Z,2.40
2023-05-17T17:20:08.289Z,2.30
2023-05-17T17:22:35.140Z,2.30
2023-05-17T17:25:01.345Z,2.47
2023-05-17T17:27:27.500Z,2.90
2023-05-17T17:29:54.851Z,2.40
2023-05-17T17:32:21.173Z,2.70
2023-05-17T17:34:47.427Z,2.00
2023-05-17T17:37:13.625Z,2.70
2023-05-17T17:39:41.386Z,2.90
2023-05-17T17:42:09.781Z,2.70
2023-05-17T17:44:36.011Z,2.80
2023-05-17T17:47:02.199Z,3.03
2023-05-17T17:49:29.325Z,2.40
2023-05-17T17:51:57.272Z,2.83
2023-05-17T17:54:23.438Z,2.70
2023-05-17T17:56:49.792Z,2.67
2023-05-17T17:59:16.413Z,2.20
2023-05-17T18:01:43.088Z,2.70
2023-05-17T18:04:10.295Z,2.40
2023-05-17T18:06:36.803Z,2.57
2023-05-17T18:09:03.006Z,2.93
2023-05-17T18:11:29.236Z,2.70
2023-05-17T18:13:55.867Z,2.60
2023-05-17T18:16:22.116Z,3.37
2023-05-17T18:18:48.355Z,2.80
2023-05-17T18:21:14.636Z,2.70
2023-05-17T18:23:40.850Z,2.37
2023-05-17T18:26:07.115Z,2.80
2023-05-17T18:28:41.841Z,3.00
2023-05-17T18:31:08.934Z,2.20
2023-05-17T18:33:35.212Z,3.33
2023-05-17T18:36:01.407Z,2.63
2023-05-17T18:38:27.639Z,2.83
2023-05-17T18:40:54.117Z,3.13
2023-05-17T18:43:21.965Z,2.70
2023-05-17T18:45:48.375Z,2.90
2023-05-17T18:48:14.943Z,2.80
2023-05-17T18:50:41.368Z,2.57
2023-05-17T18:53:07.762Z,2.37
2023-05-17T18:55:33.955Z,2.93
2023-05-17T18:58:00.408Z,2.83
2023-05-17T19:00:26.612Z,3.50
2023-05-17T19:02:52.971Z,2.83
2023-05-17T19:05:19.314Z,2.47
2023-05-17T19:07:45.619Z,2.87
2023-05-17T19:10:11.841Z,2.27
2023-05-17T19:12:38.163Z,2.87
2023-05-17T19:15:06.326Z,2.60
2023-05-17T19:17:32.689Z,2.97
2023-05-17T19:19:59.000Z,3.00
2023-05-17T19:22:25.232Z,2.97
2023-05-17T19:24:51.430Z,3.73
2023-05-17T19:27:19.151Z,3.70
2023-05-17T19:29:47.290Z,3.57
2023-05-17T19:32:13.858Z,3.03
2023-05-17T19:34:40.434Z,3.13
2023-05-17T19:37:06.844Z,3.53
2023-05-17T19:39:33.161Z,2.80
2023-05-17T19:41:59.514Z,2.60
2023-05-17T19:44:25.873Z,3.20
2023-05-17T19:46:52.223Z,2.40
2023-05-17T19:49:18.656Z,2.93
2023-05-17T19:51:45.972Z,2.77
2023-05-17T19:54:12.153Z,3.00
2023-05-17T19:56:38.588Z,3.00
2023-05-17T19:59:05.358Z,2.90
2023-05-17T20:01:31.887Z,3.10
2023-05-17T20:03:58.163Z,2.73
2023-05-17T20:06:24.724Z,2.80
2023-05-17T20:08:50.948Z,2.73
2023-05-17T20:11:17.191Z,2.53
2023-05-17T20:13:44.210Z,2.97
2023-05-17T20:16:13.629Z,3.23
2023-05-17T20:18:44.399Z,3.17
2023-05-17T20:21:14.360Z,3.10
2023-05-17T20:23:40.777Z,3.30
2023-05-17T20:26:07.395Z,3.33
2023-05-17T20:28:33.599Z,3.23
2023-05-17T20:31:00.100Z,3.10
2023-05-17T20:33:26.321Z,2.90
2023-05-17T20:35:53.263Z,3.00
2023-05-17T20:38:19.901Z,3.10
2023-05-17T20:40:46.435Z,2.63
2023-05-17T20:43:13.602Z,4.07
2023-05-17T20:45:40.180Z,3.50
2023-05-17T20:48:06.619Z,3.17
2023-05-17T20:50:32.828Z,3.43
2023-05-17T20:52:59.270Z,3.43
2023-05-17T20:55:25.579Z,3.23
2023-05-17T20:57:51.818Z,3.30
2023-05-17T21:00:20.018Z,3.77
2023-05-17T21:02:46.336Z,3.20
2023-05-17T21:05:13.045Z,4.00
2023-05-17T21:07:39.702Z,3.70
2023-05-17T21:10:07.769Z,3.27
2023-05-17T21:12:34.830Z,3.70
2023-05-17T21:15:16.445Z,3.73
2023-05-17T21:17:46.209Z,3.83
2023-05-17T21:20:13.359Z,3.67
2023-05-17T21:22:39.642Z,3.77
2023-05-17T21:25:06.753Z,3.60
2023-05-17T21:27:33.689Z,3.97
2023-05-17T21:30:00.845Z,3.40
2023-05-17T21:32:27.319Z,4.33
2023-05-17T21:34:54.578Z,3.77
2023-05-17T21:37:21.040Z,3.83
2023-05-17T21:39:47.576Z,3.63
2023-05-17T21:42:14.146Z,3.53
2023-05-17T21:44:41.057Z,3.00
2023-05-17T21:47:08.779Z,3.80
2023-05-17T21:49:38.532Z,3.93
2023-05-17T21:52:05.645Z,3.40
2023-05-17T21:54:32.356Z,3.90
2023-05-17T21:57:01.510Z,4.60
2023-05-17T21:59:28.166Z,3.57
2023-05-17T22:01:54.966Z,3.93
2023-05-17T22:04:21.637Z,4.17
2023-05-17T22:06:48.164Z,3.67
2023-05-17T22:09:15.557Z,3.97
2023-05-17T22:11:42.726Z,3.47
2023-05-17T22:14:09.534Z,3.70
2023-05-17T22:16:36.301Z,3.53
2023-05-17T22:19:04.542Z,4.30
2023-05-17T22:21:31.717Z,3.90
2023-05-17T22:23:59.095Z,3.40
2023-05-17T22:26:27.051Z,4.00
2023-05-17T22:28:54.086Z,4.13
2023-05-17T22:31:21.212Z,3.53
2023-05-17T22:33:47.866Z,3.97
2023-05-17T22:36:16.688Z,3.67
2023-05-17T22:38:43.702Z,4.27
2023-05-17T22:41:11.249Z,5.47
2023-05-17T22:43:38.347Z,5.53
2023-05-17T22:46:06.509Z,5.90
2023-05-17T22:48:36.554Z,5.67
2023-05-17T22:51:03.111Z,4.40
2023-05-17T22:53:30.433Z,4.17
2023-05-17T22:55:57.077Z,4.07
2023-05-17T22:58:23.617Z,4.20
2023-05-17T23:00:50.462Z,5.03
2023-05-17T23:03:19.053Z,5.10
2023-05-17T23:05:46.359Z,4.00
2023-05-17T23:08:14.730Z,4.50
2023-05-17T23:10:44.992Z,4.83
2023-05-17T23:13:12.412Z,4.80
2023-05-17T23:15:40.135Z,3.70
2023-05-17T23:18:06.381Z,5.10
2023-05-17T23:20:34.117Z,4.53
2023-05-17T23:23:00.887Z,5.37
2023-05-17T23:25:28.083Z,3.50
2023-05-17T23:27:56.862Z,4.47
2023-05-17T23:30:23.951Z,4.50
2023-05-17T23:32:51.621Z,4.10
2023-05-17T23:35:18.361Z,3.70
2023-05-17T23:37:44.536Z,4.27
2023-05-17T23:40:11.755Z,3.80
2023-05-17T23:42:38.139Z,4.00
2023-05-17T23:45:05.408Z,3.90
2023-05-17T23:47:32.755Z,3.93
2023-05-17T23:49:59.763Z,4.33
2023-05-17T23:52:28.994Z,4.00
2023-05-17T23:54:57.171Z,3.93
2023-05-17T23:57:23.683Z,3.77
2023-05-17T23:59:50.149Z,3.77
